Cheadle, United Kingdom
Current Conditions -  °F | °C
As of 11:20 PM on Friday 19 Dec 2014 (Local Time) from EGCC Reporting Station
Broken Clouds Broken Clouds  
Wind Chill: 35°   Ceiling: 2800
Heat Index: 43°   Visibility: 6mi
Dew Point: 39°   Wind: 15mph
Humidity: 87%   Direction: 270°W
Pressure: 30.09"   Gusts: NA
Location:  53.39°N, 2.22°W
Report Text: EGCC 192320Z 27013KT 9999 FEW015 SCT022 BKN028 06/04 Q1019 NOSIG
Loading
Personal Weather Stations






























Interactive Weather Map New forecast layout! Learn more

10-Day Weather Forecast

Advertisements
Track Severe Weather on mobile